Time;durP1;ratioP1;P1;durP2;ratioP2;P2;SDS_P1;SDS_P2;PMS_P1;PMS_P2;Temp;Humidity;BMP_temperature;BMP_pressure;BME280_temperature;BME280_humidity;BME280_pressure;Samples;Min_cycle;Max_cycle;Signal;HPM_P1;HPM_P2
2021/03/22 00:01:26;;;;;;;18.93;4.27;;;;;;;6.83;64.56;100868.03;5078593;28;20485;-68
2021/03/22 00:03:52;;;;;;;17.27;3.50;;;;;;;6.79;64.85;100862.06;5078756;28;20567;-70
2021/03/22 00:06:19;;;;;;;14.27;4.53;;;;;;;6.69;65.38;100858.31;5078968;28;20472;-67
2021/03/22 00:08:45;;;;;;;15.80;3.03;;;;;;;6.44;66.33;100859.91;5078601;28;20517;-70
2021/03/22 00:11:11;;;;;;;15.40;3.27;;;;;;;6.80;65.68;100858.44;5078711;28;20468;-70
2021/03/22 00:13:37;;;;;;;22.83;4.00;;;;;;;6.74;65.78;100850.91;5081123;28;20464;-69
2021/03/22 00:16:06;;;;;;;12.37;3.00;;;;;;;6.84;65.58;100852.00;5080816;28;20496;-69
2021/03/22 00:18:37;;;;;;;15.13;3.60;;;;;;;6.79;65.61;100846.13;5080700;28;20513;-68
2021/03/22 00:21:04;;;;;;;16.00;4.03;;;;;;;6.45;66.68;100852.78;5080012;28;21052;-67
2021/03/22 00:23:30;;;;;;;15.30;3.43;;;;;;;6.84;65.27;100846.69;5080227;28;20479;-70
2021/03/22 00:25:56;;;;;;;15.53;3.53;;;;;;;7.00;64.83;100850.97;5080583;28;20479;-69
2021/03/22 00:28:24;;;;;;;19.97;3.90;;;;;;;6.93;65.20;100851.38;5080918;28;20479;-70
2021/03/22 00:30:50;;;;;;;17.33;4.27;;;;;;;6.65;66.17;100856.78;5080156;28;20487;-69
2021/03/22 00:33:18;;;;;;;17.33;3.40;;;;;;;6.67;66.04;100860.22;5079224;28;20459;-69
2021/03/22 00:35:45;;;;;;;15.07;4.10;;;;;;;6.82;65.68;100851.22;5076045;28;20460;-67
2021/03/22 00:38:13;;;;;;;15.00;3.50;;;;;;;6.74;65.90;100856.22;5080012;28;20468;-69
2021/03/22 00:40:41;;;;;;;20.00;3.13;;;;;;;6.70;66.01;100852.91;5079119;28;20479;-67
2021/03/22 00:43:08;;;;;;;10.30;4.47;;;;;;;6.92;65.37;100847.00;5078893;28;20874;-68
2021/03/22 00:45:34;;;;;;;13.90;3.97;;;;;;;6.76;65.96;100857.81;5079678;28;20501;-68
2021/03/22 00:48:00;;;;;;;16.63;3.70;;;;;;;6.79;65.88;100852.28;5079436;28;20487;-69
2021/03/22 00:50:34;;;;;;;9.27;3.07;;;;;;;6.57;66.92;100849.34;5077993;28;20984;-70
2021/03/22 00:53:01;;;;;;;10.57;3.40;;;;;;;6.87;65.87;100849.09;5078745;28;20576;-70
2021/03/22 00:55:28;;;;;;;10.67;3.23;;;;;;;6.99;65.54;100850.09;5078197;28;20531;-70
2021/03/22 00:57:54;;;;;;;11.30;3.80;;;;;;;6.76;66.04;100848.97;5079533;28;20432;-70
2021/03/22 01:00:24;;;;;;;18.63;3.50;;;;;;;6.66;66.33;100846.06;5078655;28;20452;-68
2021/03/22 01:02:50;;;;;;;10.40;3.37;;;;;;;6.60;66.50;100847.34;5080763;28;20459;-68
2021/03/22 01:05:17;;;;;;;17.80;4.93;;;;;;;6.62;66.64;100849.88;5083252;28;20503;-70
2021/03/22 01:07:44;;;;;;;12.23;3.80;;;;;;;6.81;66.03;100852.19;5084452;28;20499;-67
2021/03/22 01:10:27;;;;;;;16.77;4.10;;;;;;;6.84;65.86;100841.38;5082794;28;20451;-68
2021/03/22 01:12:53;;;;;;;15.77;4.20;;;;;;;6.88;65.85;100847.31;5083482;28;20456;-70
2021/03/22 01:15:20;;;;;;;18.67;4.17;;;;;;;6.44;66.92;100838.66;5084430;28;20427;-70
2021/03/22 01:17:46;;;;;;;12.93;3.13;;;;;;;6.49;67.06;100851.63;5084245;28;20443;-70
2021/03/22 01:20:15;;;;;;;10.27;3.27;;;;;;;6.77;66.67;100843.56;5083077;28;20483;-69
2021/03/22 01:22:41;;;;;;;15.07;5.00;;;;;;;6.91;66.33;100841.78;5083879;28;20971;-68
2021/03/22 01:25:09;;;;;;;9.60;3.57;;;;;;;6.77;66.69;100840.03;5083297;28;20679;-67
2021/03/22 01:27:38;;;;;;;19.50;4.30;;;;;;;7.03;65.99;100837.47;5083839;28;20506;-68
2021/03/22 01:30:10;;;;;;;10.80;3.50;;;;;;;7.07;66.14;100838.97;5083167;28;20813;-65
2021/03/22 01:32:36;;;;;;;12.97;3.83;;;;;;;6.89;66.44;100835.72;5083794;28;20462;-70
2021/03/22 01:35:04;;;;;;;18.53;4.37;;;;;;;6.71;66.64;100829.84;5083650;28;20448;-66
2021/03/22 01:37:30;;;;;;;14.73;3.77;;;;;;;6.68;66.90;100824.72;5083340;28;20452;-70
2021/03/22 01:39:56;;;;;;;20.23;4.50;;;;;;;6.53;67.17;100827.44;5083771;28;20459;-70
2021/03/22 01:42:27;;;;;;;17.93;4.30;;;;;;;6.69;67.11;100823.78;5082495;28;20503;-70
2021/03/22 01:44:57;;;;;;;9.40;3.63;;;;;;;6.68;67.06;100825.56;5084270;28;20460;-69
2021/03/22 01:47:25;;;;;;;15.80;4.23;;;;;;;6.64;67.37;100818.75;5082939;28;20536;-70
2021/03/22 01:49:54;;;;;;;15.97;4.53;;;;;;;6.73;66.79;100826.09;5083248;28;20470;-70
2021/03/22 01:52:22;;;;;;;12.17;4.07;;;;;;;6.57;67.19;100809.50;5082525;28;20510;-67
2021/03/22 01:54:48;;;;;;;12.10;3.87;;;;;;;6.57;67.34;100822.78;5083900;28;20476;-68
2021/03/22 01:57:30;;;;;;;14.43;4.60;;;;;;;6.44;67.92;100808.59;5082205;28;20916;-67
2021/03/22 02:00:05;;;;;;;18.30;4.33;;;;;;;6.61;67.29;100816.28;5083818;28;20440;-69
2021/03/22 02:02:32;;;;;;;17.40;4.80;;;;;;;6.57;67.56;100814.81;5082932;28;21057;-69
2021/03/22 02:04:59;;;;;;;23.33;4.80;;;;;;;6.57;67.53;100814.81;5082845;28;20518;-70
2021/03/22 02:07:26;;;;;;;14.00;4.13;;;;;;;6.76;66.52;100809.97;5082509;28;20476;-70
2021/03/22 02:09:52;;;;;;;8.70;4.50;;;;;;;6.57;67.27;100812.16;5082099;28;20459;-69
2021/03/22 02:12:19;;;;;;;9.33;3.57;;;;;;;6.73;67.25;100811.97;5082428;28;20510;-70
2021/03/22 02:14:45;;;;;;;13.43;4.47;;;;;;;6.71;67.28;100809.41;5082719;28;20463;-70
2021/03/22 02:17:16;;;;;;;24.63;4.87;;;;;;;6.95;67.02;100817.56;5082974;28;20472;-69
2021/03/22 02:20:33;;;;;;;24.67;5.57;;;;;;;6.88;66.92;100810.97;5082549;28;20582;-67
2021/03/22 02:23:32;;;;;;;10.77;3.93;;;;;;;6.59;67.97;100813.72;5020222;28;20474;-70
2021/03/22 02:26:01;;;;;;;15.83;4.53;;;;;;;6.61;67.86;100808.31;5020521;28;20486;-68
2021/03/22 02:28:52;;;;;;;14.27;4.50;;;;;;;6.74;67.87;100811.03;5020414;28;20471;-69
2021/03/22 02:31:31;;;;;;;20.40;5.47;;;;;;;6.68;67.86;100814.94;5020166;28;20482;-66
2021/03/22 02:34:12;;;;;;;16.37;5.10;;;;;;;6.61;68.20;100813.63;5020191;28;20593;-70
2021/03/22 02:36:51;;;;;;;13.10;5.00;;;;;;;6.56;68.33;100815.75;5020459;28;20517;-70
2021/03/22 02:39:17;;;;;;;14.50;4.57;;;;;;;6.65;68.12;100823.13;5019305;28;20974;-67
2021/03/22 02:41:46;;;;;;;25.83;5.33;;;;;;;6.74;67.96;100819.00;5019522;28;20489;-67
2021/03/22 02:44:18;;;;;;;25.67;5.30;;;;;;;6.88;67.71;100820.75;5019730;28;20454;-70
2021/03/22 02:46:44;;;;;;;16.00;5.63;;;;;;;6.66;68.15;100818.66;5019651;28;20525;-69
2021/03/22 02:49:14;;;;;;;24.73;6.20;;;;;;;6.80;67.81;100813.28;5019767;28;20439;-70
2021/03/22 02:51:56;;;;;;;19.53;5.10;;;;;;;6.69;68.10;100827.28;5018939;28;20483;-68
2021/03/22 02:54:28;;;;;;;15.50;5.10;;;;;;;6.57;68.46;100822.78;5019830;28;20505;-69
2021/03/22 02:56:58;;;;;;;15.63;4.43;;;;;;;6.64;68.51;100816.09;5046414;28;20479;-70
2021/03/22 02:59:27;;;;;;;14.87;6.77;;;;;;;6.41;68.73;100828.25;5082401;28;20771;-69
2021/03/22 03:01:57;;;;;;;11.33;4.53;;;;;;;6.53;68.99;100824.78;5081509;28;20480;-66
2021/03/22 03:04:24;;;;;;;17.03;4.80;;;;;;;6.69;68.20;100818.47;5081468;28;20483;-67
2021/03/22 03:06:52;;;;;;;15.03;5.73;;;;;;;6.51;68.68;100818.72;5081781;28;20518;-69
2021/03/22 03:09:20;;;;;;;11.73;4.70;;;;;;;6.46;68.81;100823.47;5081301;28;20475;-69
2021/03/22 03:11:46;;;;;;;16.50;5.17;;;;;;;6.62;68.54;100833.94;5081467;28;20524;-66
2021/03/22 03:14:13;;;;;;;23.93;5.43;;;;;;;6.38;69.09;100823.13;5082199;28;20543;-67
2021/03/22 03:16:39;;;;;;;16.10;5.93;;;;;;;6.38;69.53;100825.78;5081464;28;20472;-67
2021/03/22 03:19:05;;;;;;;25.10;5.73;;;;;;;6.47;69.51;100822.50;5081217;28;20983;-68
2021/03/22 03:21:33;;;;;;;24.43;5.27;;;;;;;6.43;69.39;100829.00;5080885;28;20480;-69
2021/03/22 03:23:59;;;;;;;22.97;5.37;;;;;;;6.57;69.20;100833.41;5081203;28;20459;-69
2021/03/22 03:26:25;;;;;;;20.80;6.47;;;;;;;6.62;69.19;100841.91;5080438;28;20478;-69
2021/03/22 03:28:51;;;;;;;17.60;5.47;;;;;;;6.68;69.14;100832.69;5081485;28;20468;-70
2021/03/22 03:31:18;;;;;;;21.90;5.63;;;;;;;6.62;69.26;100841.91;5080816;28;20475;-69
2021/03/22 03:33:44;;;;;;;14.90;5.10;;;;;;;6.43;69.38;100831.63;5081076;28;20454;-69
2021/03/22 03:36:11;;;;;;;11.87;4.20;;;;;;;6.30;69.74;100836.91;5081304;28;20475;-69
2021/03/22 03:38:38;;;;;;;9.33;4.33;;;;;;;6.66;68.96;100832.78;5081151;28;20441;-68
2021/03/22 03:41:04;;;;;;;16.70;5.40;;;;;;;6.56;69.59;100837.00;5081152;28;20487;-68
2021/03/22 03:43:30;;;;;;;19.50;4.77;;;;;;;6.37;70.14;100830.25;5080825;28;20483;-69
2021/03/22 03:45:57;;;;;;;12.00;3.43;;;;;;;6.38;70.07;100839.06;5080945;28;20476;-70
2021/03/22 03:48:25;;;;;;;11.60;3.60;;;;;;;6.31;70.54;100835.09;5081616;28;20476;-69
2021/03/22 03:50:53;;;;;;;11.10;3.70;;;;;;;6.23;71.02;100830.25;5080421;28;20472;-70
2021/03/22 03:53:19;;;;;;;11.37;4.07;;;;;;;6.35;70.68;100826.84;5081213;28;20459;-68
2021/03/22 03:55:47;;;;;;;9.10;3.80;;;;;;;6.34;70.73;100830.44;5080915;28;20840;-67
2021/03/22 03:58:13;;;;;;;14.70;4.60;;;;;;;6.60;70.15;100828.72;5081709;28;20432;-67
2021/03/22 04:00:42;;;;;;;7.30;3.67;;;;;;;6.91;69.17;100820.53;5080367;28;20463;-67
2021/03/22 04:03:27;;;;;;;10.60;3.90;;;;;;;6.88;69.37;100823.41;5080900;28;20854;-70
2021/03/22 04:05:58;;;;;;;10.13;3.97;;;;;;;7.05;68.88;100833.75;5080417;28;20480;-70
2021/03/22 04:08:26;;;;;;;9.30;4.53;;;;;;;7.00;69.13;100838.53;5080483;28;20535;-69
2021/03/22 04:10:53;;;;;;;14.97;4.50;;;;;;;7.28;68.37;100836.66;5081127;28;20501;-70
2021/03/22 04:13:20;;;;;;;12.27;5.23;;;;;;;7.12;69.08;100844.84;5080094;28;20523;-70
2021/03/22 04:15:47;;;;;;;13.70;4.97;;;;;;;7.19;68.50;100842.59;5080720;28;20467;-70
2021/03/22 04:18:13;;;;;;;13.37;4.30;;;;;;;6.82;69.56;100842.41;5081473;28;20996;-67
2021/03/22 04:20:39;;;;;;;12.47;5.30;;;;;;;6.83;70.00;100842.31;5080497;28;20911;-67
2021/03/22 04:23:06;;;;;;;15.27;4.93;;;;;;;6.98;69.69;100851.91;5081012;28;20456;-69
2021/03/22 04:25:32;;;;;;;16.27;5.50;;;;;;;6.86;70.01;100850.09;5080326;28;20459;-67
2021/03/22 04:27:59;;;;;;;12.30;5.23;;;;;;;6.61;71.26;100866.78;5080368;28;20518;-68
2021/03/22 04:30:26;;;;;;;16.10;5.80;;;;;;;6.89;70.32;100857.00;5080959;28;20472;-70
2021/03/22 04:32:52;;;;;;;14.93;6.93;;;;;;;7.07;69.73;100855.75;5080704;28;20460;-70
2021/03/22 04:35:19;;;;;;;19.17;5.10;;;;;;;6.81;70.33;100860.16;5080412;28;21121;-71
2021/03/22 04:37:45;;;;;;;21.40;5.90;;;;;;;7.03;69.50;100864.91;5081755;28;20440;-67
2021/03/22 04:40:13;;;;;;;15.83;6.63;;;;;;;7.05;69.45;100859.47;5084064;28;20459;-67
2021/03/22 04:42:39;;;;;;;24.03;6.67;;;;;;;7.15;68.92;100861.44;5084677;28;20455;-71
2021/03/22 04:45:09;;;;;;;15.10;6.43;;;;;;;7.00;69.36;100862.44;5084749;28;20428;-70
2021/03/22 04:47:35;;;;;;;19.53;6.60;;;;;;;7.15;68.88;100857.91;5084586;28;20467;-70
2021/03/22 04:50:02;;;;;;;23.87;6.40;;;;;;;7.25;68.70;100863.47;5085189;28;21018;-67
2021/03/22 04:52:28;;;;;;;19.00;7.37;;;;;;;7.28;68.19;100871.22;5083640;28;20742;-70
2021/03/22 04:54:54;;;;;;;16.60;6.00;;;;;;;7.25;68.51;100860.78;5084743;28;20478;-70
2021/03/22 04:57:25;;;;;;;15.97;7.10;;;;;;;7.32;68.30;100856.75;5083799;28;20490;-66
2021/03/22 04:59:51;;;;;;;21.53;6.17;;;;;;;7.38;68.21;100860.81;5085248;28;20519;-67
2021/03/22 05:02:18;;;;;;;20.40;7.00;;;;;;;7.37;68.13;100859.97;5083545;28;20501;-65
2021/03/22 05:04:45;;;;;;;18.17;6.70;;;;;;;7.50;67.81;100860.81;5084367;28;20483;-70
2021/03/22 05:07:11;;;;;;;20.77;8.33;;;;;;;7.55;67.93;100857.84;5083229;28;20476;-69
2021/03/22 05:09:37;;;;;;;17.87;6.70;;;;;;;7.55;67.72;100863.16;5084139;28;20456;-69
2021/03/22 05:12:04;;;;;;;21.60;7.77;;;;;;;7.48;67.97;100862.75;5082755;28;20475;-69
2021/03/22 05:14:30;;;;;;;21.93;7.13;;;;;;;7.52;68.04;100856.25;5084177;28;20456;-70
2021/03/22 05:16:57;;;;;;;17.13;7.47;;;;;;;7.58;68.02;100856.78;5084044;28;20583;-70
2021/03/22 05:19:24;;;;;;;22.43;7.70;;;;;;;7.27;68.83;100861.53;5083695;28;20830;-66
2021/03/22 05:21:50;;;;;;;17.37;6.47;;;;;;;7.14;69.33;100862.38;5083971;28;20501;-66
2021/03/22 05:24:16;;;;;;;24.40;8.40;;;;;;;7.34;69.17;100871.69;5082580;28;20460;-69
2021/03/22 05:26:43;;;;;;;26.13;7.03;;;;;;;7.45;68.43;100870.94;5082795;28;20478;-70
2021/03/22 05:29:09;;;;;;;21.53;7.00;;;;;;;7.53;68.27;100871.25;5084350;28;20556;-70
2021/03/22 05:31:35;;;;;;;22.87;7.63;;;;;;;7.40;68.48;100870.41;5082854;28;20486;-69
2021/03/22 05:34:01;;;;;;;19.67;6.80;;;;;;;7.09;69.82;100871.63;5083051;28;20459;-68
2021/03/22 05:36:29;;;;;;;17.83;7.50;;;;;;;7.38;68.97;100879.41;5082833;28;20510;-69
2021/03/22 05:38:55;;;;;;;22.50;7.40;;;;;;;7.45;68.71;100878.91;5082236;28;20444;-70
2021/03/22 05:41:23;;;;;;;17.77;7.37;;;;;;;7.40;68.77;100875.72;5083326;28;20517;-70
2021/03/22 05:43:58;;;;;;;29.30;7.20;;;;;;;7.40;68.72;100874.88;5083614;28;20436;-70
2021/03/22 05:46:36;;;;;;;23.20;8.30;;;;;;;7.42;68.72;100881.78;5082868;28;20489;-68
2021/03/22 05:49:18;;;;;;;19.07;8.27;;;;;;;7.53;68.18;100884.56;5082750;28;20484;-70
2021/03/22 05:52:20;;;;;;;17.93;7.43;;;;;;;7.43;68.61;100886.16;5082909;28;20819;-71
2021/03/22 05:55:07;;;;;;;23.37;7.97;;;;;;;7.36;68.63;100887.53;5090761;28;20511;-71
2021/03/22 05:57:43;;;;;;;24.30;6.70;;;;;;;7.53;68.36;100876.59;5082414;28;20468;-71
2021/03/22 06:00:18;;;;;;;16.07;7.30;;;;;;;7.43;68.56;100880.84;5082337;28;20527;-70
2021/03/22 06:02:50;;;;;;;21.50;7.10;;;;;;;7.49;68.31;100880.41;5079385;28;20471;-71
2021/03/22 06:05:26;;;;;;;19.30;7.73;;;;;;;7.52;68.31;100880.19;5082000;28;20483;-68
2021/03/22 06:07:55;;;;;;;15.93;7.17;;;;;;;7.62;67.73;100879.53;5083658;28;20495;-70
2021/03/22 06:10:22;;;;;;;20.90;7.20;;;;;;;7.66;67.86;100886.38;5081774;28;20809;-69
2021/03/22 06:12:51;;;;;;;16.10;6.87;;;;;;;7.66;67.70;100881.06;5082024;28;21032;-71
2021/03/22 06:15:23;;;;;;;16.27;7.33;;;;;;;7.81;67.56;100887.97;5082119;28;20946;-70
2021/03/22 06:17:54;;;;;;;21.87;7.17;;;;;;;7.60;67.99;100884.97;5074340;28;20466;-71
2021/03/22 06:20:26;;;;;;;21.07;6.90;;;;;;;7.77;68.20;100889.13;5081527;28;21336;-69
2021/03/22 06:22:55;;;;;;;21.17;6.27;;;;;;;7.65;67.77;100882.00;5067935;28;20766;-67
2021/03/22 06:25:24;;;;;;;17.00;6.10;;;;;;;7.51;68.30;100889.13;5082400;28;20444;-70
2021/03/22 06:27:52;;;;;;;23.90;7.17;;;;;;;7.71;68.27;100893.09;5083012;28;20483;-70
2021/03/22 06:30:21;;;;;;;12.40;6.00;;;;;;;7.85;67.10;100888.63;5082124;28;21038;-71
2021/03/22 06:32:49;;;;;;;25.63;6.40;;;;;;;7.60;67.05;100886.78;5082191;28;20443;-68
2021/03/22 06:35:19;;;;;;;21.33;6.47;;;;;;;7.50;67.54;100894.56;5080140;28;20547;-70
2021/03/22 06:37:45;;;;;;;21.30;6.00;;;;;;;7.61;66.86;100892.00;5081757;28;20440;-71
2021/03/22 06:40:15;;;;;;;13.57;6.17;;;;;;;7.46;67.64;100899.22;5081728;28;20456;-71
2021/03/22 06:42:42;;;;;;;13.43;5.57;;;;;;;7.60;67.85;100900.94;5082263;28;20448;-71
2021/03/22 06:45:27;;;;;;;12.47;5.53;;;;;;;7.53;68.16;100910.31;5081960;28;20483;-69
2021/03/22 06:48:12;;;;;;;16.33;6.17;;;;;;;7.58;67.98;100915.31;5082323;28;20487;-70
2021/03/22 06:50:38;;;;;;;15.90;5.53;;;;;;;7.68;67.92;100911.91;5081100;28;20467;-70
2021/03/22 06:53:04;;;;;;;12.93;5.90;;;;;;;7.76;67.75;100908.75;5075849;28;20460;-68
2021/03/22 06:55:34;;;;;;;18.80;5.30;;;;;;;7.73;67.51;100915.13;5075845;28;20555;-69
2021/03/22 06:58:00;;;;;;;12.40;6.33;;;;;;;7.88;67.47;100917.66;5081995;28;20452;-67
2021/03/22 07:00:29;;;;;;;14.10;5.90;;;;;;;7.71;67.92;100922.34;5081898;28;20482;-68
2021/03/22 07:02:58;;;;;;;16.53;6.03;;;;;;;7.47;68.72;100929.38;5082168;28;20458;-74
2021/03/22 07:05:35;;;;;;;18.00;6.80;;;;;;;7.61;68.59;100936.41;5081812;28;20467;-71
2021/03/22 07:08:04;;;;;;;17.17;6.40;;;;;;;7.65;68.49;100937.88;5079776;28;20518;-68
2021/03/22 07:10:33;;;;;;;14.27;5.67;;;;;;;7.57;69.22;100929.56;5080432;28;20464;-68
2021/03/22 07:13:19;;;;;;;16.30;6.50;;;;;;;7.65;68.77;100936.06;5081170;28;20471;-68
2021/03/22 07:15:46;;;;;;;18.33;6.40;;;;;;;7.78;68.38;100936.09;5100121;28;20479;-69
2021/03/22 07:18:18;;;;;;;17.10;5.10;;;;;;;7.66;69.05;100937.78;5080080;28;20471;-68
2021/03/22 07:20:46;;;;;;;14.33;5.17;;;;;;;7.55;69.26;100932.34;5073065;28;20474;-71
2021/03/22 07:23:39;;;;;;;16.67;5.30;;;;;;;7.61;69.09;100934.59;5075091;28;20452;-70
2021/03/22 07:26:12;;;;;;;11.00;5.13;;;;;;;7.72;68.77;100939.16;5069597;28;20471;-70
2021/03/22 07:28:43;;;;;;;10.07;4.80;;;;;;;8.07;67.79;100944.72;5079714;28;20472;-68
2021/03/22 07:31:20;;;;;;;16.60;4.73;;;;;;;7.95;68.07;100936.72;5079958;28;20472;-66
2021/03/22 07:33:55;;;;;;;12.60;4.90;;;;;;;8.18;67.84;100935.97;5079129;28;21051;-67
2021/03/22 07:36:34;;;;;;;13.27;4.60;;;;;;;8.00;67.57;100939.94;5090348;28;20475;-70
2021/03/22 07:39:26;;;;;;;14.57;5.40;;;;;;;8.48;66.68;100951.63;5089770;28;20444;-67
2021/03/22 07:42:02;;;;;;;12.57;5.00;;;;;;;8.03;67.33;100947.72;5078666;28;20480;-72
2021/03/22 07:45:00;;;;;;;8.50;5.13;;;;;;;8.09;67.61;100957.94;5075438;28;20460;-68
2021/03/22 07:47:36;;;;;;;10.57;3.87;;;;;;;8.04;67.81;100952.94;5071218;28;20480;-73
2021/03/22 07:50:12;;;;;;;12.27;4.10;;;;;;;8.61;66.30;100956.94;5071303;28;20944;-73
2021/03/22 07:52:41;;;;;;;12.60;3.70;;;;;;;8.09;67.02;100961.44;5079139;28;20447;-74
2021/03/22 07:55:28;;;;;;;10.73;3.90;;;;;;;8.24;66.50;100962.16;5078950;28;20452;-69
2021/03/22 07:57:59;;;;;;;9.13;3.67;;;;;;;8.06;66.75;100960.81;5079349;28;20492;-72
2021/03/22 08:00:33;;;;;;;7.90;3.50;;;;;;;8.43;66.53;100966.25;5079180;28;20471;-72
2021/03/22 08:03:22;;;;;;;10.30;3.27;;;;;;;8.33;66.85;100966.00;5079237;28;20684;-67
2021/03/22 08:06:22;;;;;;;9.67;4.10;;;;;;;8.18;67.55;100970.63;5075272;28;20695;-72
2021/03/22 08:09:08;;;;;;;15.23;3.83;;;;;;;8.13;67.14;100967.41;5099844;28;20466;-77
2021/03/22 08:11:41;;;;;;;9.13;3.10;;;;;;;7.90;68.16;100969.88;5094165;28;20464;-69
2021/03/22 08:14:14;;;;;;;8.33;3.30;;;;;;;7.77;68.44;100966.31;5078804;28;20498;-70
2021/03/22 08:16:54;;;;;;;14.53;4.40;;;;;;;8.09;68.29;100976.59;5076928;28;20502;-65
2021/03/22 08:19:25;;;;;;;10.83;4.57;;;;;;;8.27;67.99;100980.59;5079271;28;20447;-65
2021/03/22 08:21:57;;;;;;;8.40;4.03;;;;;;;8.18;68.11;100983.94;5079517;28;20456;-65
2021/03/22 08:24:29;;;;;;;9.70;4.30;;;;;;;8.36;67.42;100988.91;5078531;28;20463;-69
2021/03/22 08:27:00;;;;;;;10.67;3.40;;;;;;;8.62;66.94;100987.09;5079272;28;20471;-64
2021/03/22 08:29:29;;;;;;;6.43;3.57;;;;;;;8.56;66.50;100992.84;5079940;28;20507;-64
2021/03/22 08:32:10;;;;;;;7.73;3.53;;;;;;;8.85;66.02;100990.75;5077872;28;20480;-66
2021/03/22 08:34:40;;;;;;;13.67;6.07;;;;;;;9.19;64.06;100999.81;5079301;28;20456;-74
2021/03/22 08:37:09;;;;;;;32.97;7.23;;;;;;;9.27;64.46;100993.06;5079313;28;21004;-77
2021/03/22 08:39:41;;;;;;;11.90;3.40;;;;;;;9.53;63.33;101004.47;5078339;28;20448;-65
2021/03/22 08:42:15;;;;;;;7.10;2.93;;;;;;;9.34;62.61;101000.53;5078199;28;20480;-65
2021/03/22 08:44:45;;;;;;;8.67;3.10;;;;;;;9.39;63.57;101006.38;5080084;28;20447;-68
2021/03/22 08:47:23;;;;;;;9.17;3.40;;;;;;;9.19;64.07;101004.31;5079084;28;20471;-68
2021/03/22 08:49:54;;;;;;;8.83;2.70;;;;;;;9.04;64.57;101006.28;5079432;28;20474;-67
2021/03/22 08:52:27;;;;;;;4.90;2.93;;;;;;;8.91;64.02;101022.34;5078242;28;20471;-67
2021/03/22 08:55:00;;;;;;;7.00;3.00;;;;;;;8.72;65.09;101011.28;5078285;28;20454;-66
2021/03/22 08:57:29;;;;;;;8.30;3.13;;;;;;;9.29;64.19;101015.16;5078851;28;20482;-66
2021/03/22 09:00:11;;;;;;;8.43;2.50;;;;;;;8.92;65.09;101020.50;5079491;28;20475;-67
2021/03/22 09:02:38;;;;;;;5.67;2.77;;;;;;;9.32;63.76;101022.94;5079071;28;20513;-65
2021/03/22 09:05:17;;;;;;;3.40;2.03;;;;;;;9.20;63.90;101022.00;5077849;28;20483;-67
2021/03/22 09:07:44;;;;;;;6.17;2.67;;;;;;;9.55;63.79;101024.75;5077527;28;20498;-65
2021/03/22 09:10:30;;;;;;;5.40;2.40;;;;;;;9.74;62.92;101018.88;5078531;28;20464;-67
2021/03/22 09:13:17;;;;;;;2.60;2.13;;;;;;;9.43;63.17;101017.66;5079181;28;20452;-66
2021/03/22 09:16:03;;;;;;;5.80;2.40;;;;;;;9.32;63.66;101010.47;5075634;28;20490;-67
2021/03/22 09:18:30;;;;;;;4.10;2.10;;;;;;;9.32;63.17;101010.47;5078467;28;20450;-67
2021/03/22 09:21:19;;;;;;;3.63;2.30;;;;;;;9.07;65.11;101013.22;5077398;28;20544;-67
2021/03/22 09:23:46;;;;;;;2.90;1.90;;;;;;;9.21;63.93;101008.56;5070674;28;20455;-69
2021/03/22 09:26:13;;;;;;;5.00;2.10;;;;;;;9.42;63.55;101005.28;5081328;28;20502;-68
2021/03/22 09:28:45;;;;;;;12.63;3.30;;;;;;;10.24;61.77;101018.63;5102693;28;20797;-68
2021/03/22 09:31:45;;;;;;;9.97;2.40;;;;;;;10.63;60.11;101015.66;5101777;28;21007;-69
2021/03/22 09:34:43;;;;;;;3.13;1.50;;;;;;;10.63;59.06;101013.81;5067202;28;20459;-68
2021/03/22 09:37:47;;;;;;;8.87;4.13;;;;;;;11.28;57.29;101005.91;5081959;28;20486;-68
2021/03/22 09:40:56;;;;;;;35.47;6.10;;;;;;;10.69;58.68;101016.00;5101436;28;20455;-69
2021/03/22 09:43:38;;;;;;;29.97;5.43;;;;;;;10.23;60.43;101018.75;5086802;28;20474;-68
2021/03/22 09:46:32;;;;;;;4.20;1.33;;;;;;;9.72;61.23;101011.94;5101273;28;20486;-67
2021/03/22 09:49:24;;;;;;;3.60;1.63;;;;;;;9.47;62.00;101016.44;5091282;28;20476;-74
2021/03/22 09:51:53;;;;;;;3.43;1.67;;;;;;;9.24;62.50;101018.16;5081253;28;20486;-71
2021/03/22 09:54:31;;;;;;;4.17;1.93;;;;;;;9.12;63.44;101029.75;5081558;28;20459;-74
2021/03/22 09:57:42;;;;;;;4.10;1.60;;;;;;;9.30;62.36;101027.53;5082240;28;20476;-66
2021/03/22 10:00:28;;;;;;;3.13;1.40;;;;;;;9.89;60.88;101037.38;5050043;28;20856;-68
2021/03/22 10:02:56;;;;;;;2.80;1.70;;;;;;;10.38;59.73;101033.63;5068761;28;20482;-70
2021/03/22 10:05:27;;;;;;;2.40;1.73;;;;;;;10.58;59.36;101037.38;5080794;28;20495;-71
2021/03/22 10:08:16;;;;;;;3.50;1.47;;;;;;;9.95;59.56;101034.25;5081418;28;20468;-70
2021/03/22 10:10:51;;;;;;;2.30;1.40;;;;;;;9.48;61.58;101046.66;5081507;28;20474;-73
2021/03/22 10:13:21;;;;;;;2.97;1.60;;;;;;;9.12;62.75;101040.41;5082173;28;20447;-66
2021/03/22 10:15:52;;;;;;;4.97;1.47;;;;;;;8.74;63.84;101038.69;5078808;28;20503;-70
2021/03/22 10:18:28;;;;;;;2.40;1.10;;;;;;;8.67;63.52;101035.59;5082028;28;20745;-69
2021/03/22 10:21:13;;;;;;;2.30;1.10;;;;;;;8.88;63.36;101029.72;5081058;28;20475;-69
2021/03/22 10:23:55;;;;;;;3.17;1.27;;;;;;;8.79;62.90;101044.56;5081649;28;20466;-70
2021/03/22 10:26:25;;;;;;;2.50;1.20;;;;;;;8.89;62.97;101042.94;5081473;28;20472;-69
2021/03/22 10:29:10;;;;;;;3.60;1.63;;;;;;;9.49;61.90;101030.53;5081503;28;20483;-70
2021/03/22 10:31:36;;;;;;;2.20;1.50;;;;;;;9.48;60.76;101028.84;5080389;28;20464;-68
2021/03/22 10:34:03;;;;;;;2.97;1.13;;;;;;;10.28;59.17;101033.44;5081082;28;20539;-67
2021/03/22 10:36:32;;;;;;;3.87;1.30;;;;;;;10.21;59.23;101042.03;5081166;28;20464;-71
2021/03/22 10:38:59;;;;;;;4.50;1.50;;;;;;;10.80;58.35;101044.56;5080464;28;20424;-73
2021/03/22 10:41:31;;;;;;;3.13;1.10;;;;;;;9.98;58.86;101042.88;5081041;28;20969;-70
2021/03/22 10:43:59;;;;;;;2.10;1.20;;;;;;;9.82;58.43;101039.66;5081609;28;20459;-69
2021/03/22 10:46:27;;;;;;;1.60;0.90;;;;;;;9.97;58.79;101045.66;5078422;28;20478;-67
2021/03/22 10:49:02;;;;;;;5.20;1.10;;;;;;;10.33;57.56;101047.34;5079851;28;20491;-67
2021/03/22 10:51:41;;;;;;;2.30;1.13;;;;;;;9.82;58.18;101052.16;5079998;28;20471;-71
2021/03/22 10:54:11;;;;;;;1.60;1.17;;;;;;;9.86;58.01;101050.94;5080021;28;20456;-66
2021/03/22 10:56:48;;;;;;;1.70;1.10;;;;;;;9.82;58.54;101044.97;5080538;28;20490;-69
2021/03/22 10:59:18;;;;;;;4.00;1.10;;;;;;;10.31;57.24;101045.72;5081105;28;20444;-73
2021/03/22 11:01:44;;;;;;;2.03;0.80;;;;;;;10.14;56.83;101044.38;5080612;28;20472;-71
2021/03/22 11:04:17;;;;;;;4.10;1.00;;;;;;;10.75;55.76;101052.09;5080340;28;20555;-68
2021/03/22 11:06:47;;;;;;;1.97;1.13;;;;;;;11.21;54.13;101037.66;5080423;28;20484;-70
2021/03/22 11:09:22;;;;;;;3.30;1.63;;;;;;;11.52;53.47;101047.69;5079278;28;20476;-71
2021/03/22 11:11:49;;;;;;;2.20;1.00;;;;;;;12.70;50.56;101048.38;5079375;28;20475;-68
2021/03/22 11:14:18;;;;;;;2.03;0.80;;;;;;;11.65;51.85;101051.06;5080621;28;20448;-70
2021/03/22 11:16:45;;;;;;;2.57;1.10;;;;;;;11.23;53.06;101048.25;5077666;28;20490;-67
2021/03/22 11:19:29;;;;;;;1.80;0.97;;;;;;;11.17;53.35;101046.09;5080331;28;20535;-71
2021/03/22 11:22:00;;;;;;;1.27;0.90;;;;;;;10.76;53.83;101053.78;5080421;28;20480;-71
2021/03/22 11:24:36;;;;;;;2.33;1.50;;;;;;;10.00;56.66;101050.75;5079342;28;20870;-69
2021/03/22 11:27:06;;;;;;;1.77;1.00;;;;;;;9.86;56.15;101053.63;5080543;28;20536;-68
2021/03/22 11:29:32;;;;;;;2.30;1.10;;;;;;;9.67;57.12;101057.69;5080414;28;20765;-75
2021/03/22 11:32:02;;;;;;;1.87;1.00;;;;;;;9.91;57.02;101056.78;5079751;28;20474;-72
2021/03/22 11:34:31;;;;;;;2.77;1.03;;;;;;;10.32;55.75;101053.63;5080131;28;20451;-65
2021/03/22 11:37:05;;;;;;;1.97;1.37;;;;;;;10.35;55.73;101056.09;5079140;28;20483;-67
2021/03/22 11:39:33;;;;;;;1.10;0.83;;;;;;;10.49;55.65;101057.69;5078381;28;20811;-66
2021/03/22 11:42:25;;;;;;;1.97;0.90;;;;;;;10.76;55.22;101061.81;5079631;28;20474;-71
2021/03/22 11:44:51;;;;;;;1.77;1.03;;;;;;;10.98;53.99;101057.44;5075862;28;20463;-69
2021/03/22 11:47:43;;;;;;;1.20;0.90;;;;;;;11.21;54.12;101055.56;5077831;28;20475;-66
2021/03/22 11:50:44;;;;;;;1.67;0.83;;;;;;;11.69;52.76;101052.50;5078991;28;20458;-68